sensor_id;sensor_type;location;lat;lon;timestamp;P1;durP1;ratioP1;P2;durP2;ratioP2
75456;SDS011;64036;48.266;14.192;2024-03-06T00:01:54;22.90;;;11.20;;
75456;SDS011;64036;48.266;14.192;2024-03-06T00:04:20;24.30;;;11.20;;
75456;SDS011;64036;48.266;14.192;2024-03-06T00:06:49;24.50;;;11.30;;
75456;SDS011;64036;48.266;14.192;2024-03-06T00:09:26;23.70;;;11.20;;
75456;SDS011;64036;48.266;14.192;2024-03-06T00:11:56;22.50;;;10.90;;
75456;SDS011;64036;48.266;14.192;2024-03-06T00:14:25;23.90;;;12.00;;
75456;SDS011;64036;48.266;14.192;2024-03-06T00:16:54;25.80;;;12.20;;
75456;SDS011;64036;48.266;14.192;2024-03-06T00:19:23;15.80;;;9.50;;
75456;SDS011;64036;48.266;14.192;2024-03-06T00:21:50;21.40;;;10.30;;
75456;SDS011;64036;48.266;14.192;2024-03-06T00:24:18;22.50;;;11.60;;
75456;SDS011;64036;48.266;14.192;2024-03-06T00:26:45;19.60;;;10.60;;
75456;SDS011;64036;48.266;14.192;2024-03-06T00:29:12;24.30;;;10.40;;
75456;SDS011;64036;48.266;14.192;2024-03-06T00:31:43;19.70;;;10.10;;
75456;SDS011;64036;48.266;14.192;2024-03-06T00:34:10;24.90;;;11.40;;
75456;SDS011;64036;48.266;14.192;2024-03-06T00:36:43;23.90;;;11.50;;
75456;SDS011;64036;48.266;14.192;2024-03-06T00:39:12;21.60;;;10.50;;
75456;SDS011;64036;48.266;14.192;2024-03-06T00:41:44;21.90;;;9.50;;
75456;SDS011;64036;48.266;14.192;2024-03-06T00:44:10;19.00;;;10.10;;
75456;SDS011;64036;48.266;14.192;2024-03-06T00:46:36;20.50;;;9.90;;
75456;SDS011;64036;48.266;14.192;2024-03-06T00:49:02;20.90;;;10.60;;
75456;SDS011;64036;48.266;14.192;2024-03-06T00:51:28;20.10;;;10.10;;
75456;SDS011;64036;48.266;14.192;2024-03-06T00:53:54;22.30;;;10.60;;
75456;SDS011;64036;48.266;14.192;2024-03-06T00:56:20;22.20;;;10.50;;
75456;SDS011;64036;48.266;14.192;2024-03-06T00:58:45;22.70;;;11.00;;
75456;SDS011;64036;48.266;14.192;2024-03-06T01:01:14;23.20;;;10.80;;
75456;SDS011;64036;48.266;14.192;2024-03-06T01:03:41;23.20;;;11.40;;
75456;SDS011;64036;48.266;14.192;2024-03-06T01:06:06;21.80;;;11.20;;
75456;SDS011;64036;48.266;14.192;2024-03-06T01:08:34;21.90;;;11.20;;
75456;SDS011;64036;48.266;14.192;2024-03-06T01:11:01;21.70;;;10.60;;
75456;SDS011;64036;48.266;14.192;2024-03-06T01:13:28;17.00;;;8.60;;
75456;SDS011;64036;48.266;14.192;2024-03-06T01:15:56;18.90;;;9.40;;
75456;SDS011;64036;48.266;14.192;2024-03-06T01:18:27;19.30;;;9.20;;
75456;SDS011;64036;48.266;14.192;2024-03-06T01:20:53;19.20;;;9.30;;
75456;SDS011;64036;48.266;14.192;2024-03-06T01:23:18;15.40;;;7.70;;
75456;SDS011;64036;48.266;14.192;2024-03-06T01:25:44;18.50;;;9.80;;
75456;SDS011;64036;48.266;14.192;2024-03-06T01:28:10;16.90;;;8.70;;
75456;SDS011;64036;48.266;14.192;2024-03-06T01:30:38;16.70;;;8.30;;
75456;SDS011;64036;48.266;14.192;2024-03-06T01:33:05;18.50;;;9.10;;
75456;SDS011;64036;48.266;14.192;2024-03-06T01:35:33;17.50;;;8.90;;
75456;SDS011;64036;48.266;14.192;2024-03-06T01:38:02;18.00;;;8.80;;
75456;SDS011;64036;48.266;14.192;2024-03-06T01:40:28;15.60;;;8.60;;
75456;SDS011;64036;48.266;14.192;2024-03-06T01:42:55;18.20;;;9.30;;
75456;SDS011;64036;48.266;14.192;2024-03-06T01:45:30;18.50;;;9.10;;
75456;SDS011;64036;48.266;14.192;2024-03-06T01:47:56;18.70;;;9.40;;
75456;SDS011;64036;48.266;14.192;2024-03-06T01:50:22;13.70;;;7.80;;
75456;SDS011;64036;48.266;14.192;2024-03-06T01:52:50;15.40;;;8.20;;
75456;SDS011;64036;48.266;14.192;2024-03-06T01:55:16;15.00;;;8.20;;
75456;SDS011;64036;48.266;14.192;2024-03-06T01:57:42;17.10;;;9.10;;
75456;SDS011;64036;48.266;14.192;2024-03-06T02:00:13;18.50;;;9.50;;
75456;SDS011;64036;48.266;14.192;2024-03-06T02:02:42;14.50;;;7.50;;
75456;SDS011;64036;48.266;14.192;2024-03-06T02:05:09;17.70;;;8.50;;
75456;SDS011;64036;48.266;14.192;2024-03-06T02:07:38;14.90;;;7.70;;
75456;SDS011;64036;48.266;14.192;2024-03-06T02:10:07;13.70;;;7.40;;
75456;SDS011;64036;48.266;14.192;2024-03-06T02:12:37;17.50;;;8.30;;
75456;SDS011;64036;48.266;14.192;2024-03-06T02:15:04;17.20;;;8.40;;
75456;SDS011;64036;48.266;14.192;2024-03-06T02:17:34;16.10;;;8.00;;
75456;SDS011;64036;48.266;14.192;2024-03-06T02:20:01;15.70;;;7.90;;
75456;SDS011;64036;48.266;14.192;2024-03-06T02:22:31;14.40;;;7.40;;
75456;SDS011;64036;48.266;14.192;2024-03-06T02:24:58;16.30;;;9.10;;
75456;SDS011;64036;48.266;14.192;2024-03-06T02:27:27;16.90;;;8.30;;
75456;SDS011;64036;48.266;14.192;2024-03-06T02:29:53;16.30;;;8.70;;
75456;SDS011;64036;48.266;14.192;2024-03-06T02:32:18;20.40;;;9.90;;
75456;SDS011;64036;48.266;14.192;2024-03-06T02:34:44;20.80;;;9.60;;
75456;SDS011;64036;48.266;14.192;2024-03-06T02:37:10;17.60;;;10.10;;
75456;SDS011;64036;48.266;14.192;2024-03-06T02:39:36;22.70;;;10.10;;
75456;SDS011;64036;48.266;14.192;2024-03-06T02:42:03;21.90;;;10.60;;
75456;SDS011;64036;48.266;14.192;2024-03-06T02:44:29;19.20;;;9.90;;
75456;SDS011;64036;48.266;14.192;2024-03-06T02:46:55;20.70;;;9.60;;
75456;SDS011;64036;48.266;14.192;2024-03-06T02:49:21;17.70;;;8.80;;
75456;SDS011;64036;48.266;14.192;2024-03-06T02:51:57;18.30;;;9.60;;
75456;SDS011;64036;48.266;14.192;2024-03-06T02:54:23;19.70;;;9.70;;
75456;SDS011;64036;48.266;14.192;2024-03-06T02:56:51;17.90;;;9.50;;
75456;SDS011;64036;48.266;14.192;2024-03-06T02:59:17;17.00;;;8.90;;
75456;SDS011;64036;48.266;14.192;2024-03-06T03:01:44;19.60;;;9.90;;
75456;SDS011;64036;48.266;14.192;2024-03-06T03:04:10;18.00;;;9.50;;
75456;SDS011;64036;48.266;14.192;2024-03-06T03:06:38;20.20;;;10.10;;
75456;SDS011;64036;48.266;14.192;2024-03-06T03:09:06;13.70;;;7.60;;
75456;SDS011;64036;48.266;14.192;2024-03-06T03:14:04;18.30;;;9.00;;
75456;SDS011;64036;48.266;14.192;2024-03-06T03:16:33;13.70;;;7.10;;
75456;SDS011;64036;48.266;14.192;2024-03-06T03:18:58;17.30;;;7.70;;
75456;SDS011;64036;48.266;14.192;2024-03-06T03:21:28;14.50;;;7.50;;
75456;SDS011;64036;48.266;14.192;2024-03-06T03:24:17;14.40;;;7.50;;
75456;SDS011;64036;48.266;14.192;2024-03-06T03:26:45;14.80;;;7.20;;
75456;SDS011;64036;48.266;14.192;2024-03-06T03:29:11;16.70;;;7.30;;
75456;SDS011;64036;48.266;14.192;2024-03-06T03:31:37;12.90;;;7.00;;
75456;SDS011;64036;48.266;14.192;2024-03-06T03:34:05;13.30;;;6.90;;
75456;SDS011;64036;48.266;14.192;2024-03-06T03:36:30;13.70;;;7.00;;
75456;SDS011;64036;48.266;14.192;2024-03-06T03:38:56;13.30;;;6.40;;
75456;SDS011;64036;48.266;14.192;2024-03-06T03:41:25;15.60;;;7.50;;
75456;SDS011;64036;48.266;14.192;2024-03-06T03:43:51;13.30;;;6.70;;
75456;SDS011;64036;48.266;14.192;2024-03-06T03:46:16;15.70;;;7.40;;
75456;SDS011;64036;48.266;14.192;2024-03-06T03:48:50;11.90;;;6.50;;
75456;SDS011;64036;48.266;14.192;2024-03-06T03:51:19;12.50;;;6.60;;
75456;SDS011;64036;48.266;14.192;2024-03-06T03:53:45;14.60;;;6.80;;
75456;SDS011;64036;48.266;14.192;2024-03-06T03:59:01;13.30;;;6.50;;
75456;SDS011;64036;48.266;14.192;2024-03-06T04:01:28;14.90;;;6.40;;
75456;SDS011;64036;48.266;14.192;2024-03-06T04:03:53;12.80;;;6.80;;
75456;SDS011;64036;48.266;14.192;2024-03-06T04:06:19;11.30;;;5.80;;
75456;SDS011;64036;48.266;14.192;2024-03-06T04:08:45;12.30;;;6.80;;
75456;SDS011;64036;48.266;14.192;2024-03-06T04:11:11;12.80;;;6.30;;
75456;SDS011;64036;48.266;14.192;2024-03-06T04:13:38;12.50;;;6.10;;
75456;SDS011;64036;48.266;14.192;2024-03-06T04:16:04;13.80;;;6.00;;
75456;SDS011;64036;48.266;14.192;2024-03-06T04:18:31;12.60;;;5.90;;
75456;SDS011;64036;48.266;14.192;2024-03-06T04:21:04;14.00;;;6.70;;
75456;SDS011;64036;48.266;14.192;2024-03-06T04:23:31;12.30;;;7.00;;
75456;SDS011;64036;48.266;14.192;2024-03-06T04:26:03;12.70;;;6.00;;
75456;SDS011;64036;48.266;14.192;2024-03-06T04:28:32;11.90;;;5.90;;
75456;SDS011;64036;48.266;14.192;2024-03-06T04:30:58;11.50;;;5.70;;
75456;SDS011;64036;48.266;14.192;2024-03-06T04:33:23;15.30;;;6.70;;
75456;SDS011;64036;48.266;14.192;2024-03-06T04:35:49;13.10;;;6.80;;
75456;SDS011;64036;48.266;14.192;2024-03-06T04:38:15;15.30;;;7.40;;
75456;SDS011;64036;48.266;14.192;2024-03-06T04:40:42;13.50;;;7.20;;
75456;SDS011;64036;48.266;14.192;2024-03-06T04:43:08;14.10;;;6.00;;
75456;SDS011;64036;48.266;14.192;2024-03-06T04:45:33;16.30;;;7.80;;
75456;SDS011;64036;48.266;14.192;2024-03-06T04:47:59;15.90;;;7.40;;
75456;SDS011;64036;48.266;14.192;2024-03-06T04:50:25;12.00;;;6.00;;
75456;SDS011;64036;48.266;14.192;2024-03-06T04:52:52;14.00;;;6.10;;
75456;SDS011;64036;48.266;14.192;2024-03-06T04:55:18;12.20;;;5.80;;
75456;SDS011;64036;48.266;14.192;2024-03-06T04:57:48;13.20;;;7.10;;
75456;SDS011;64036;48.266;14.192;2024-03-06T05:00:14;17.40;;;8.90;;
75456;SDS011;64036;48.266;14.192;2024-03-06T05:02:41;15.60;;;7.50;;
75456;SDS011;64036;48.266;14.192;2024-03-06T05:05:07;17.00;;;7.80;;
75456;SDS011;64036;48.266;14.192;2024-03-06T05:07:33;14.20;;;6.90;;
75456;SDS011;64036;48.266;14.192;2024-03-06T05:10:00;13.30;;;6.60;;
75456;SDS011;64036;48.266;14.192;2024-03-06T05:12:26;13.40;;;6.50;;
75456;SDS011;64036;48.266;14.192;2024-03-06T05:15:02;13.90;;;7.00;;
75456;SDS011;64036;48.266;14.192;2024-03-06T05:17:37;11.90;;;6.00;;
75456;SDS011;64036;48.266;14.192;2024-03-06T05:20:03;13.20;;;6.10;;
75456;SDS011;64036;48.266;14.192;2024-03-06T05:22:30;12.30;;;5.90;;
75456;SDS011;64036;48.266;14.192;2024-03-06T05:24:56;13.20;;;6.50;;
75456;SDS011;64036;48.266;14.192;2024-03-06T05:27:24;15.60;;;7.10;;
75456;SDS011;64036;48.266;14.192;2024-03-06T05:29:53;15.00;;;7.60;;
75456;SDS011;64036;48.266;14.192;2024-03-06T05:32:20;12.60;;;7.00;;
75456;SDS011;64036;48.266;14.192;2024-03-06T05:34:46;15.60;;;8.20;;
75456;SDS011;64036;48.266;14.192;2024-03-06T05:37:11;14.40;;;7.50;;
75456;SDS011;64036;48.266;14.192;2024-03-06T05:39:38;14.70;;;7.60;;
75456;SDS011;64036;48.266;14.192;2024-03-06T05:42:04;13.60;;;6.50;;
75456;SDS011;64036;48.266;14.192;2024-03-06T05:44:33;14.10;;;6.80;;
75456;SDS011;64036;48.266;14.192;2024-03-06T05:47:01;12.80;;;7.00;;
75456;SDS011;64036;48.266;14.192;2024-03-06T05:49:28;16.10;;;6.70;;
75456;SDS011;64036;48.266;14.192;2024-03-06T05:52:08;14.40;;;6.80;;
75456;SDS011;64036;48.266;14.192;2024-03-06T05:54:34;12.40;;;6.60;;
75456;SDS011;64036;48.266;14.192;2024-03-06T05:57:03;12.80;;;6.70;;
75456;SDS011;64036;48.266;14.192;2024-03-06T05:59:28;13.20;;;6.50;;
75456;SDS011;64036;48.266;14.192;2024-03-06T06:01:54;14.60;;;6.80;;
75456;SDS011;64036;48.266;14.192;2024-03-06T06:04:20;14.60;;;7.40;;
75456;SDS011;64036;48.266;14.192;2024-03-06T06:06:47;14.50;;;7.00;;
75456;SDS011;64036;48.266;14.192;2024-03-06T06:09:12;15.40;;;8.10;;
75456;SDS011;64036;48.266;14.192;2024-03-06T06:11:44;14.00;;;6.90;;
75456;SDS011;64036;48.266;14.192;2024-03-06T06:16:41;13.10;;;6.80;;
75456;SDS011;64036;48.266;14.192;2024-03-06T06:19:08;15.40;;;8.10;;
75456;SDS011;64036;48.266;14.192;2024-03-06T06:21:34;15.80;;;8.00;;
75456;SDS011;64036;48.266;14.192;2024-03-06T06:24:04;16.80;;;8.80;;
75456;SDS011;64036;48.266;14.192;2024-03-06T06:26:31;16.60;;;8.20;;
75456;SDS011;64036;48.266;14.192;2024-03-06T06:28:57;14.80;;;7.90;;
75456;SDS011;64036;48.266;14.192;2024-03-06T06:31:24;15.90;;;7.70;;
75456;SDS011;64036;48.266;14.192;2024-03-06T06:33:53;13.90;;;7.60;;
75456;SDS011;64036;48.266;14.192;2024-03-06T06:36:19;14.00;;;7.50;;
75456;SDS011;64036;48.266;14.192;2024-03-06T06:38:46;12.20;;;6.60;;
75456;SDS011;64036;48.266;14.192;2024-03-06T06:41:16;13.70;;;7.00;;
75456;SDS011;64036;48.266;14.192;2024-03-06T06:43:46;14.10;;;6.90;;
75456;SDS011;64036;48.266;14.192;2024-03-06T06:46:12;12.60;;;6.60;;
75456;SDS011;64036;48.266;14.192;2024-03-06T06:48:38;14.60;;;7.00;;
75456;SDS011;64036;48.266;14.192;2024-03-06T06:51:03;15.70;;;8.30;;
75456;SDS011;64036;48.266;14.192;2024-03-06T06:53:30;14.90;;;8.10;;
75456;SDS011;64036;48.266;14.192;2024-03-06T06:55:57;14.30;;;7.40;;
75456;SDS011;64036;48.266;14.192;2024-03-06T06:58:23;14.00;;;7.60;;
75456;SDS011;64036;48.266;14.192;2024-03-06T07:00:49;17.60;;;8.10;;
75456;SDS011;64036;48.266;14.192;2024-03-06T07:03:15;16.70;;;8.80;;
75456;SDS011;64036;48.266;14.192;2024-03-06T07:05:40;15.30;;;8.40;;
75456;SDS011;64036;48.266;14.192;2024-03-06T07:08:11;15.60;;;8.10;;
75456;SDS011;64036;48.266;14.192;2024-03-06T07:10:37;14.10;;;7.80;;
75456;SDS011;64036;48.266;14.192;2024-03-06T07:13:02;14.10;;;7.50;;
75456;SDS011;64036;48.266;14.192;2024-03-06T07:15:29;15.30;;;7.80;;
75456;SDS011;64036;48.266;14.192;2024-03-06T07:18:00;16.10;;;8.40;;
75456;SDS011;64036;48.266;14.192;2024-03-06T07:20:42;15.30;;;7.80;;
75456;SDS011;64036;48.266;14.192;2024-03-06T07:23:16;15.30;;;7.90;;
75456;SDS011;64036;48.266;14.192;2024-03-06T07:25:42;12.40;;;6.90;;
75456;SDS011;64036;48.266;14.192;2024-03-06T07:28:10;16.50;;;8.50;;
75456;SDS011;64036;48.266;14.192;2024-03-06T07:30:36;15.30;;;7.70;;
75456;SDS011;64036;48.266;14.192;2024-03-06T07:33:02;18.00;;;7.40;;
75456;SDS011;64036;48.266;14.192;2024-03-06T07:35:30;16.10;;;8.30;;
75456;SDS011;64036;48.266;14.192;2024-03-06T07:37:56;14.70;;;7.90;;
75456;SDS011;64036;48.266;14.192;2024-03-06T07:40:22;21.80;;;9.80;;
75456;SDS011;64036;48.266;14.192;2024-03-06T07:42:48;15.30;;;9.00;;
75456;SDS011;64036;48.266;14.192;2024-03-06T07:45:14;16.60;;;8.30;;
75456;SDS011;64036;48.266;14.192;2024-03-06T07:47:39;17.50;;;8.60;;
75456;SDS011;64036;48.266;14.192;2024-03-06T07:50:06;15.40;;;8.70;;
75456;SDS011;64036;48.266;14.192;2024-03-06T07:52:36;17.10;;;9.40;;
75456;SDS011;64036;48.266;14.192;2024-03-06T07:55:02;20.30;;;9.80;;
75456;SDS011;64036;48.266;14.192;2024-03-06T07:57:28;17.70;;;9.80;;
75456;SDS011;64036;48.266;14.192;2024-03-06T07:59:54;18.30;;;10.30;;
75456;SDS011;64036;48.266;14.192;2024-03-06T08:02:20;19.50;;;10.10;;
75456;SDS011;64036;48.266;14.192;2024-03-06T08:04:47;19.60;;;10.40;;
75456;SDS011;64036;48.266;14.192;2024-03-06T08:07:13;19.40;;;10.40;;
75456;SDS011;64036;48.266;14.192;2024-03-06T08:09:39;26.20;;;12.20;;
75456;SDS011;64036;48.266;14.192;2024-03-06T08:12:05;22.90;;;12.70;;
75456;SDS011;64036;48.266;14.192;2024-03-06T08:14:31;22.40;;;12.10;;
75456;SDS011;64036;48.266;14.192;2024-03-06T08:16:57;23.40;;;11.50;;
75456;SDS011;64036;48.266;14.192;2024-03-06T08:19:22;21.50;;;11.70;;
75456;SDS011;64036;48.266;14.192;2024-03-06T08:21:50;23.90;;;13.20;;
75456;SDS011;64036;48.266;14.192;2024-03-06T08:24:16;26.20;;;13.80;;
75456;SDS011;64036;48.266;14.192;2024-03-06T08:26:42;25.10;;;14.00;;
75456;SDS011;64036;48.266;14.192;2024-03-06T08:29:08;23.20;;;12.50;;
75456;SDS011;64036;48.266;14.192;2024-03-06T08:32:06;26.50;;;14.10;;
75456;SDS011;64036;48.266;14.192;2024-03-06T08:35:29;24.00;;;12.40;;
75456;SDS011;64036;48.266;14.192;2024-03-06T08:37:55;22.30;;;13.20;;
75456;SDS011;64036;48.266;14.192;2024-03-06T08:40:21;23.60;;;12.30;;
75456;SDS011;64036;48.266;14.192;2024-03-06T08:42:48;23.90;;;12.00;;
75456;SDS011;64036;48.266;14.192;2024-03-06T08:45:15;22.80;;;11.30;;
75456;SDS011;64036;48.266;14.192;2024-03-06T08:47:43;18.60;;;10.10;;
75456;SDS011;64036;48.266;14.192;2024-03-06T08:50:09;23.40;;;13.00;;
75456;SDS011;64036;48.266;14.192;2024-03-06T08:52:36;26.20;;;12.70;;
75456;SDS011;64036;48.266;14.192;2024-03-06T08:55:02;23.90;;;12.10;;
75456;SDS011;64036;48.266;14.192;2024-03-06T08:57:38;22.80;;;13.30;;
75456;SDS011;64036;48.266;14.192;2024-03-06T09:00:05;26.70;;;14.20;;
75456;SDS011;64036;48.266;14.192;2024-03-06T09:02:42;20.70;;;10.40;;
75456;SDS011;64036;48.266;14.192;2024-03-06T09:05:08;26.80;;;14.80;;
75456;SDS011;64036;48.266;14.192;2024-03-06T09:07:36;22.00;;;12.10;;
75456;SDS011;64036;48.266;14.192;2024-03-06T09:10:07;27.30;;;14.90;;
75456;SDS011;64036;48.266;14.192;2024-03-06T09:12:33;23.50;;;13.20;;
75456;SDS011;64036;48.266;14.192;2024-03-06T09:14:59;26.90;;;14.60;;
75456;SDS011;64036;48.266;14.192;2024-03-06T09:17:27;27.00;;;14.90;;
75456;SDS011;64036;48.266;14.192;2024-03-06T09:22:27;27.40;;;15.70;;
75456;SDS011;64036;48.266;14.192;2024-03-06T09:24:53;25.20;;;13.90;;
75456;SDS011;64036;48.266;14.192;2024-03-06T09:27:19;25.80;;;13.00;;
75456;SDS011;64036;48.266;14.192;2024-03-06T09:29:44;25.20;;;14.30;;
75456;SDS011;64036;48.266;14.192;2024-03-06T09:32:10;30.00;;;15.60;;
75456;SDS011;64036;48.266;14.192;2024-03-06T09:34:38;26.20;;;14.60;;
75456;SDS011;64036;48.266;14.192;2024-03-06T09:37:04;24.50;;;14.70;;
75456;SDS011;64036;48.266;14.192;2024-03-06T09:39:30;22.70;;;12.40;;
75456;SDS011;64036;48.266;14.192;2024-03-06T09:41:56;18.60;;;10.60;;
75456;SDS011;64036;48.266;14.192;2024-03-06T09:44:22;23.00;;;13.30;;
75456;SDS011;64036;48.266;14.192;2024-03-06T09:46:49;24.40;;;13.60;;
75456;SDS011;64036;48.266;14.192;2024-03-06T09:49:18;23.40;;;11.60;;
75456;SDS011;64036;48.266;14.192;2024-03-06T09:51:45;22.90;;;12.30;;
75456;SDS011;64036;48.266;14.192;2024-03-06T09:54:13;19.60;;;12.20;;
75456;SDS011;64036;48.266;14.192;2024-03-06T09:56:43;25.30;;;13.90;;
75456;SDS011;64036;48.266;14.192;2024-03-06T09:59:11;27.00;;;13.70;;
75456;SDS011;64036;48.266;14.192;2024-03-06T10:06:50;19.80;;;10.20;;
75456;SDS011;64036;48.266;14.192;2024-03-06T10:09:20;22.90;;;12.10;;
75456;SDS011;64036;48.266;14.192;2024-03-06T10:11:46;23.60;;;12.80;;
75456;SDS011;64036;48.266;14.192;2024-03-06T10:14:13;21.40;;;12.30;;
75456;SDS011;64036;48.266;14.192;2024-03-06T10:16:58;23.60;;;13.20;;
75456;SDS011;64036;48.266;14.192;2024-03-06T10:19:27;25.00;;;12.60;;
75456;SDS011;64036;48.266;14.192;2024-03-06T10:21:54;19.30;;;10.40;;
75456;SDS011;64036;48.266;14.192;2024-03-06T10:24:24;23.00;;;12.30;;
75456;SDS011;64036;48.266;14.192;2024-03-06T10:26:51;22.50;;;12.00;;
75456;SDS011;64036;48.266;14.192;2024-03-06T10:29:20;24.30;;;12.50;;
75456;SDS011;64036;48.266;14.192;2024-03-06T10:31:49;21.30;;;11.70;;
75456;SDS011;64036;48.266;14.192;2024-03-06T10:34:16;18.00;;;9.40;;
75456;SDS011;64036;48.266;14.192;2024-03-06T10:36:42;22.90;;;12.50;;
75456;SDS011;64036;48.266;14.192;2024-03-06T10:39:11;19.40;;;11.50;;
75456;SDS011;64036;48.266;14.192;2024-03-06T10:41:40;22.50;;;11.70;;
75456;SDS011;64036;48.266;14.192;2024-03-06T10:44:13;20.70;;;11.80;;
75456;SDS011;64036;48.266;14.192;2024-03-06T10:46:43;19.90;;;11.40;;
75456;SDS011;64036;48.266;14.192;2024-03-06T10:49:12;20.10;;;11.30;;
75456;SDS011;64036;48.266;14.192;2024-03-06T10:51:43;21.40;;;12.50;;
75456;SDS011;64036;48.266;14.192;2024-03-06T10:54:11;21.70;;;12.00;;
75456;SDS011;64036;48.266;14.192;2024-03-06T10:56:40;18.30;;;11.00;;
75456;SDS011;64036;48.266;14.192;2024-03-06T10:59:12;16.40;;;9.60;;
75456;SDS011;64036;48.266;14.192;2024-03-06T11:01:40;15.60;;;9.00;;
75456;SDS011;64036;48.266;14.192;2024-03-06T11:04:06;16.50;;;8.40;;
75456;SDS011;64036;48.266;14.192;2024-03-06T11:06:33;16.20;;;9.50;;
75456;SDS011;64036;48.266;14.192;2024-03-06T11:09:02;17.40;;;9.10;;
75456;SDS011;64036;48.266;14.192;2024-03-06T11:11:29;18.20;;;10.00;;
75456;SDS011;64036;48.266;14.192;2024-03-06T11:14:04;15.40;;;9.40;;
75456;SDS011;64036;48.266;14.192;2024-03-06T11:17:03;19.20;;;9.40;;
75456;SDS011;64036;48.266;14.192;2024-03-06T11:28:27;15.00;;;9.00;;
75456;SDS011;64036;48.266;14.192;2024-03-06T11:31:04;16.60;;;8.40;;
75456;SDS011;64036;48.266;14.192;2024-03-06T11:33:45;16.10;;;9.00;;
75456;SDS011;64036;48.266;14.192;2024-03-06T11:36:23;16.90;;;9.80;;
75456;SDS011;64036;48.266;14.192;2024-03-06T11:39:03;16.90;;;8.90;;
75456;SDS011;64036;48.266;14.192;2024-03-06T11:41:52;14.80;;;8.20;;
75456;SDS011;64036;48.266;14.192;2024-03-06T11:44:22;15.30;;;9.30;;
75456;SDS011;64036;48.266;14.192;2024-03-06T11:47:00;14.80;;;8.50;;
75456;SDS011;64036;48.266;14.192;2024-03-06T11:49:28;16.50;;;9.30;;
75456;SDS011;64036;48.266;14.192;2024-03-06T11:51:56;16.40;;;9.40;;
75456;SDS011;64036;48.266;14.192;2024-03-06T11:54:31;12.70;;;7.60;;
75456;SDS011;64036;48.266;14.192;2024-03-06T11:56:59;15.20;;;7.90;;
75456;SDS011;64036;48.266;14.192;2024-03-06T11:59:27;16.20;;;8.30;;
75456;SDS011;64036;48.266;14.192;2024-03-06T12:01:59;15.00;;;8.10;;
75456;SDS011;64036;48.266;14.192;2024-03-06T12:04:34;12.10;;;7.60;;
75456;SDS011;64036;48.266;14.192;2024-03-06T12:07:02;15.10;;;8.80;;
75456;SDS011;64036;48.266;14.192;2024-03-06T12:09:32;12.70;;;7.60;;
75456;SDS011;64036;48.266;14.192;2024-03-06T12:11:58;13.10;;;7.60;;
75456;SDS011;64036;48.266;14.192;2024-03-06T12:14:24;13.80;;;8.40;;
75456;SDS011;64036;48.266;14.192;2024-03-06T12:17:01;12.90;;;7.70;;
75456;SDS011;64036;48.266;14.192;2024-03-06T12:19:33;12.00;;;7.60;;
75456;SDS011;64036;48.266;14.192;2024-03-06T12:22:01;16.20;;;8.20;;
75456;SDS011;64036;48.266;14.192;2024-03-06T12:24:28;11.20;;;6.80;;
75456;SDS011;64036;48.266;14.192;2024-03-06T12:27:04;17.30;;;7.00;;
75456;SDS011;64036;48.266;14.192;2024-03-06T12:29:32;15.20;;;9.20;;
75456;SDS011;64036;48.266;14.192;2024-03-06T12:32:00;14.60;;;8.70;;
75456;SDS011;64036;48.266;14.192;2024-03-06T12:34:28;15.90;;;9.10;;
75456;SDS011;64036;48.266;14.192;2024-03-06T12:36:55;14.00;;;8.10;;
75456;SDS011;64036;48.266;14.192;2024-03-06T12:39:23;14.80;;;9.30;;
75456;SDS011;64036;48.266;14.192;2024-03-06T12:41:51;16.70;;;9.20;;
75456;SDS011;64036;48.266;14.192;2024-03-06T12:44:18;15.80;;;9.30;;
75456;SDS011;64036;48.266;14.192;2024-03-06T12:46:44;14.50;;;8.60;;
75456;SDS011;64036;48.266;14.192;2024-03-06T12:49:10;14.60;;;9.20;;
75456;SDS011;64036;48.266;14.192;2024-03-06T12:51:36;16.90;;;9.70;;
75456;SDS011;64036;48.266;14.192;2024-03-06T12:54:02;13.50;;;7.90;;
75456;SDS011;64036;48.266;14.192;2024-03-06T12:56:29;16.60;;;9.10;;
75456;SDS011;64036;48.266;14.192;2024-03-06T12:58:55;13.80;;;8.70;;
75456;SDS011;64036;48.266;14.192;2024-03-06T13:01:20;14.00;;;8.70;;
75456;SDS011;64036;48.266;14.192;2024-03-06T13:03:46;14.40;;;7.50;;
75456;SDS011;64036;48.266;14.192;2024-03-06T13:06:12;13.20;;;8.50;;
75456;SDS011;64036;48.266;14.192;2024-03-06T13:08:38;14.30;;;8.70;;
75456;SDS011;64036;48.266;14.192;2024-03-06T13:11:04;15.10;;;8.90;;
75456;SDS011;64036;48.266;14.192;2024-03-06T13:13:29;15.40;;;9.10;;
75456;SDS011;64036;48.266;14.192;2024-03-06T13:15:58;15.60;;;9.10;;
75456;SDS011;64036;48.266;14.192;2024-03-06T13:18:24;13.70;;;8.00;;
75456;SDS011;64036;48.266;14.192;2024-03-06T13:20:51;14.30;;;8.70;;
75456;SDS011;64036;48.266;14.192;2024-03-06T13:23:17;15.60;;;9.00;;
75456;SDS011;64036;48.266;14.192;2024-03-06T13:25:43;14.80;;;9.00;;
75456;SDS011;64036;48.266;14.192;2024-03-06T13:28:11;14.00;;;8.00;;
75456;SDS011;64036;48.266;14.192;2024-03-06T13:30:38;16.90;;;9.00;;
75456;SDS011;64036;48.266;14.192;2024-03-06T13:33:05;14.90;;;9.20;;
75456;SDS011;64036;48.266;14.192;2024-03-06T13:35:31;14.40;;;8.20;;
75456;SDS011;64036;48.266;14.192;2024-03-06T13:37:56;15.20;;;8.60;;
75456;SDS011;64036;48.266;14.192;2024-03-06T13:40:22;13.80;;;8.70;;
75456;SDS011;64036;48.266;14.192;2024-03-06T13:42:48;15.20;;;8.50;;
75456;SDS011;64036;48.266;14.192;2024-03-06T13:45:14;16.30;;;9.50;;
75456;SDS011;64036;48.266;14.192;2024-03-06T13:47:41;13.20;;;7.60;;
75456;SDS011;64036;48.266;14.192;2024-03-06T13:50:11;14.90;;;9.00;;
75456;SDS011;64036;48.266;14.192;2024-03-06T13:52:39;15.30;;;8.80;;
75456;SDS011;64036;48.266;14.192;2024-03-06T13:55:05;15.10;;;8.60;;
75456;SDS011;64036;48.266;14.192;2024-03-06T13:57:36;17.20;;;9.10;;
75456;SDS011;64036;48.266;14.192;2024-03-06T14:00:10;13.50;;;7.80;;
75456;SDS011;64036;48.266;14.192;2024-03-06T14:02:43;13.30;;;7.90;;
75456;SDS011;64036;48.266;14.192;2024-03-06T14:05:11;15.70;;;8.10;;
75456;SDS011;64036;48.266;14.192;2024-03-06T14:07:38;13.90;;;7.50;;
75456;SDS011;64036;48.266;14.192;2024-03-06T14:10:04;13.00;;;7.50;;
75456;SDS011;64036;48.266;14.192;2024-03-06T14:12:30;14.50;;;8.20;;
75456;SDS011;64036;48.266;14.192;2024-03-06T14:14:56;11.10;;;7.20;;
75456;SDS011;64036;48.266;14.192;2024-03-06T14:17:21;16.10;;;8.50;;
75456;SDS011;64036;48.266;14.192;2024-03-06T14:19:47;16.20;;;8.70;;
75456;SDS011;64036;48.266;14.192;2024-03-06T14:22:12;13.50;;;7.20;;
75456;SDS011;64036;48.266;14.192;2024-03-06T14:24:38;10.90;;;6.50;;
75456;SDS011;64036;48.266;14.192;2024-03-06T14:27:04;11.60;;;6.70;;
75456;SDS011;64036;48.266;14.192;2024-03-06T14:29:31;15.20;;;8.80;;
75456;SDS011;64036;48.266;14.192;2024-03-06T14:31:56;15.20;;;8.30;;
75456;SDS011;64036;48.266;14.192;2024-03-06T14:34:22;13.00;;;7.70;;
75456;SDS011;64036;48.266;14.192;2024-03-06T14:36:50;12.90;;;7.40;;
75456;SDS011;64036;48.266;14.192;2024-03-06T14:39:17;15.00;;;8.10;;
75456;SDS011;64036;48.266;14.192;2024-03-06T14:41:43;13.00;;;7.60;;
75456;SDS011;64036;48.266;14.192;2024-03-06T14:44:10;14.70;;;7.80;;
75456;SDS011;64036;48.266;14.192;2024-03-06T14:46:36;16.50;;;8.50;;
75456;SDS011;64036;48.266;14.192;2024-03-06T14:49:02;15.70;;;8.20;;